createdAt,value
2023-04-30T00:00:10.552Z,2.95
2023-04-30T00:03:13.632Z,2.22
2023-04-30T00:06:16.778Z,1.58
2023-04-30T00:09:21.054Z,2.30
2023-04-30T00:12:23.745Z,2.63
2023-04-30T00:15:26.501Z,2.50
2023-04-30T00:18:29.267Z,3.30
2023-04-30T00:21:32.020Z,2.58
2023-04-30T00:24:36.286Z,2.63
2023-04-30T00:27:40.832Z,3.65
2023-04-30T00:30:43.807Z,2.22
2023-04-30T00:33:46.487Z,1.77
2023-04-30T00:36:49.227Z,2.08
2023-04-30T00:39:53.335Z,4.10
2023-04-30T00:42:56.422Z,2.33
2023-04-30T00:45:59.493Z,3.97
2023-04-30T00:49:04.960Z,4.28
2023-04-30T00:52:08.017Z,2.80
2023-04-30T00:55:12.981Z,6.13
2023-04-30T00:58:16.512Z,2.58
2023-04-30T01:01:19.694Z,2.97
2023-04-30T01:04:22.968Z,2.63
2023-04-30T01:07:28.337Z,3.03
2023-04-30T01:10:39.174Z,2.67
2023-04-30T01:13:49.669Z,3.20
2023-04-30T01:16:59.531Z,2.70
2023-04-30T01:20:04.221Z,3.17
2023-04-30T01:23:15.379Z,2.85
2023-04-30T01:26:30.914Z,4.50
2023-04-30T01:29:37.530Z,4.45
2023-04-30T01:32:40.295Z,4.57
2023-04-30T01:36:13.077Z,4.90
2023-04-30T01:39:35.045Z,6.18
2023-04-30T01:42:46.369Z,4.63
2023-04-30T01:46:01.967Z,5.07
2023-04-30T01:49:14.113Z,5.10
2023-04-30T01:52:21.789Z,6.15
2023-04-30T01:55:31.320Z,6.85
2023-04-30T01:58:35.941Z,4.47
2023-04-30T02:01:40.123Z,5.10
2023-04-30T02:04:42.880Z,7.28
2023-04-30T02:07:47.686Z,6.75
2023-04-30T02:10:50.351Z,5.63
2023-04-30T02:13:53.056Z,7.05
2023-04-30T02:16:57.119Z,6.72
2023-04-30T02:20:00.096Z,4.97
2023-04-30T02:23:03.055Z,6.50
2023-04-30T02:26:05.747Z,8.18
2023-04-30T02:29:08.461Z,6.57
2023-04-30T02:32:12.604Z,6.18
2023-04-30T02:35:15.259Z,8.57
2023-04-30T02:38:17.962Z,6.25
2023-04-30T02:41:21.600Z,8.85
2023-04-30T02:44:24.348Z,7.57
2023-04-30T02:47:28.551Z,5.82
2023-04-30T02:50:31.542Z,6.97
2023-04-30T02:53:34.458Z,6.55
2023-04-30T02:56:38.760Z,7.13
2023-04-30T02:59:45.741Z,6.30
2023-04-30T03:02:50.051Z,7.90
2023-04-30T03:05:52.846Z,7.60
2023-04-30T03:08:55.545Z,7.60
2023-04-30T03:11:58.298Z,5.72
2023-04-30T03:15:01.159Z,8.27
2023-04-30T03:18:05.876Z,6.63
2023-04-30T03:21:09.621Z,7.53
2023-04-30T03:24:12.305Z,6.68
2023-04-30T03:27:16.919Z,6.63
2023-04-30T03:30:19.883Z,6.05
2023-04-30T03:33:24.021Z,6.28
2023-04-30T03:36:27.225Z,7.15
2023-04-30T03:39:30.016Z,5.05
2023-04-30T03:42:32.758Z,5.18
2023-04-30T03:45:35.492Z,5.78
2023-04-30T03:48:39.587Z,5.70
2023-04-30T03:51:42.415Z,5.22
2023-04-30T03:54:45.090Z,5.20
2023-04-30T03:57:47.922Z,6.22
2023-04-30T04:00:51.037Z,7.47
2023-04-30T04:03:55.566Z,5.55
2023-04-30T04:06:58.305Z,5.45
2023-04-30T04:10:01.386Z,5.07
2023-04-30T04:13:04.452Z,5.07
2023-04-30T04:16:08.739Z,5.40
2023-04-30T04:19:13.832Z,9.20
2023-04-30T04:22:16.728Z,6.55
2023-04-30T04:25:20.580Z,5.93
2023-04-30T04:28:23.313Z,6.40
2023-04-30T04:31:26.851Z,6.57
2023-04-30T04:34:30.919Z,7.82
2023-04-30T04:37:33.689Z,7.47
2023-04-30T04:40:37.238Z,7.68
2023-04-30T04:43:39.955Z,7.65
2023-04-30T04:46:44.534Z,8.15
2023-04-30T04:49:48.670Z,10.30
2023-04-30T04:52:51.564Z,9.38
2023-04-30T04:55:54.228Z,8.88
2023-04-30T04:58:57.035Z,9.85
2023-04-30T05:01:59.844Z,9.85
2023-04-30T05:05:04.301Z,8.32
2023-04-30T05:08:07.051Z,10.73
2023-04-30T05:11:09.704Z,8.68
2023-04-30T05:14:12.395Z,8.77
2023-04-30T05:17:15.346Z,9.60
2023-04-30T05:20:19.679Z,9.23
2023-04-30T05:23:22.375Z,8.60
2023-04-30T05:26:25.362Z,8.98
2023-04-30T05:29:28.079Z,8.80
2023-04-30T05:32:30.982Z,11.63
2023-04-30T05:35:36.320Z,10.02
2023-04-30T05:38:39.198Z,7.55
2023-04-30T05:41:41.864Z,8.75
2023-04-30T05:44:44.711Z,8.95
2023-04-30T05:47:47.457Z,7.93
2023-04-30T05:50:51.517Z,9.35
2023-04-30T05:53:54.358Z,9.30
2023-04-30T05:56:56.975Z,8.93
2023-04-30T06:00:00.704Z,9.77
2023-04-30T06:03:03.656Z,13.20
2023-04-30T06:06:08.273Z,9.50
2023-04-30T06:09:11.685Z,9.38
2023-04-30T06:12:16.300Z,10.20
2023-04-30T06:15:19.334Z,8.77
2023-04-30T06:18:22.085Z,8.77
2023-04-30T06:21:26.187Z,14.10
2023-04-30T06:24:30.289Z,9.50
2023-04-30T06:27:33.237Z,12.55
2023-04-30T06:30:36.001Z,9.35
2023-04-30T06:33:38.721Z,9.15
2023-04-30T06:36:42.875Z,11.40
2023-04-30T06:39:45.654Z,9.95
2023-04-30T06:42:48.393Z,9.88
2023-04-30T06:45:51.464Z,10.18
2023-04-30T06:48:54.452Z,10.35
2023-04-30T06:51:58.931Z,9.20
2023-04-30T06:55:02.077Z,9.27
2023-04-30T06:58:05.770Z,9.95
2023-04-30T07:01:08.658Z,10.15
2023-04-30T07:04:11.641Z,8.57
2023-04-30T07:07:15.916Z,7.95
2023-04-30T07:10:18.649Z,8.38
2023-04-30T07:13:21.330Z,8.18
2023-04-30T07:16:27.767Z,10.35
2023-04-30T07:19:30.807Z,7.82
2023-04-30T07:22:35.608Z,6.38
2023-04-30T07:25:38.281Z,7.53
2023-04-30T07:28:40.924Z,6.35
2023-04-30T07:31:43.634Z,7.85
2023-04-30T07:34:46.359Z,7.03
2023-04-30T07:37:50.368Z,6.13
2023-04-30T07:40:55.377Z,6.15
2023-04-30T07:43:59.805Z,6.57
2023-04-30T07:47:02.872Z,5.20
2023-04-30T07:50:06.378Z,5.18
2023-04-30T07:53:10.468Z,5.15
2023-04-30T07:56:13.143Z,5.78
2023-04-30T07:59:15.986Z,7.60
2023-04-30T08:02:18.804Z,6.13
2023-04-30T08:05:21.765Z,4.90
2023-04-30T08:08:25.850Z,6.07
2023-04-30T08:11:28.539Z,6.15
2023-04-30T08:14:31.435Z,5.32
2023-04-30T08:17:34.776Z,7.57
2023-04-30T08:20:38.639Z,5.22
2023-04-30T08:23:43.021Z,5.40
2023-04-30T08:26:45.717Z,3.97
2023-04-30T08:29:48.425Z,4.35
2023-04-30T08:32:51.361Z,4.28
2023-04-30T08:35:54.709Z,4.13
2023-04-30T08:38:58.721Z,4.40
2023-04-30T08:42:05.262Z,4.07
2023-04-30T08:45:12.829Z,3.95
2023-04-30T08:48:16.890Z,4.72
2023-04-30T08:51:19.825Z,4.55
2023-04-30T08:54:26.101Z,3.72
2023-04-30T08:57:28.933Z,3.13
2023-04-30T09:00:33.547Z,2.80
2023-04-30T09:03:36.659Z,2.17
2023-04-30T09:06:39.502Z,2.28
2023-04-30T09:09:44.136Z,2.28
2023-04-30T09:12:59.809Z,2.33
2023-04-30T09:16:02.999Z,2.65
2023-04-30T09:19:05.778Z,3.35
2023-04-30T09:22:21.430Z,2.58
2023-04-30T09:25:40.188Z,2.83
2023-04-30T09:28:56.492Z,2.85
2023-04-30T09:32:09.759Z,2.53
2023-04-30T09:35:30.623Z,2.58
2023-04-30T09:38:34.039Z,4.22
2023-04-30T09:41:38.764Z,3.08
2023-04-30T09:44:42.336Z,3.75
2023-04-30T09:47:45.918Z,2.15
2023-04-30T09:50:49.737Z,2.00
2023-04-30T09:53:52.955Z,2.38
2023-04-30T09:56:58.984Z,5.25
2023-04-30T10:00:02.293Z,2.35
2023-04-30T10:03:08.232Z,3.53
2023-04-30T10:06:15.615Z,4.82
2023-04-30T10:09:18.991Z,2.38
2023-04-30T10:12:27.125Z,2.63
2023-04-30T10:15:33.815Z,3.20
2023-04-30T10:18:40.134Z,2.50
2023-04-30T10:21:46.694Z,3.95
2023-04-30T10:24:50.787Z,3.28
2023-04-30T10:27:55.141Z,1.98
2023-04-30T10:30:58.729Z,1.92
2023-04-30T10:34:10.836Z,2.85
2023-04-30T10:37:22.409Z,2.65
2023-04-30T10:40:27.769Z,1.95
2023-04-30T10:43:33.118Z,2.35
2023-04-30T10:46:36.960Z,3.08
2023-04-30T10:49:42.432Z,2.22
2023-04-30T10:52:45.309Z,2.35
2023-04-30T10:55:50.035Z,3.05
2023-04-30T10:58:54.167Z,2.03
2023-04-30T11:01:59.309Z,3.05
2023-04-30T11:05:13.877Z,2.75
2023-04-30T11:08:16.990Z,2.97
2023-04-30T11:11:22.075Z,4.30
2023-04-30T11:14:26.209Z,4.97
2023-04-30T11:17:29.766Z,3.63
2023-04-30T11:20:32.484Z,2.92
2023-04-30T11:23:40.469Z,2.35
2023-04-30T11:27:13.988Z,2.38
2023-04-30T11:30:19.398Z,2.95
2023-04-30T11:33:23.503Z,2.08
2023-04-30T11:36:29.637Z,2.22
2023-04-30T11:39:36.685Z,2.40
2023-04-30T11:42:41.555Z,2.67
2023-04-30T11:46:10.285Z,2.65
2023-04-30T11:49:13.277Z,3.45
2023-04-30T11:52:15.974Z,3.10
2023-04-30T11:55:20.175Z,2.47
2023-04-30T11:58:23.027Z,3.97
2023-04-30T12:01:29.095Z,2.67
2023-04-30T12:04:31.820Z,3.15
2023-04-30T12:07:35.423Z,1.95
2023-04-30T12:10:38.170Z,2.53
2023-04-30T12:13:40.771Z,2.97
2023-04-30T12:16:49.207Z,1.73
2023-04-30T12:19:52.989Z,4.72
2023-04-30T12:22:56.530Z,2.60
2023-04-30T12:26:00.704Z,2.58
2023-04-30T12:29:05.248Z,3.25
2023-04-30T12:32:09.431Z,2.90
2023-04-30T12:35:16.550Z,3.20
2023-04-30T12:38:20.329Z,2.20
2023-04-30T12:41:23.050Z,2.33
2023-04-30T12:44:27.700Z,3.22
2023-04-30T12:47:32.177Z,2.38
2023-04-30T12:50:35.457Z,2.45
2023-04-30T12:53:46.251Z,3.38
2023-04-30T12:56:59.160Z,2.20
2023-04-30T13:00:03.889Z,2.63
2023-04-30T13:03:08.495Z,4.05
2023-04-30T13:06:11.475Z,2.83
2023-04-30T13:09:14.227Z,2.28
2023-04-30T13:12:16.965Z,2.53
2023-04-30T13:15:20.073Z,2.10
2023-04-30T13:18:24.042Z,4.63
2023-04-30T13:21:27.848Z,3.25
2023-04-30T13:24:31.263Z,2.40
2023-04-30T13:27:34.090Z,2.25
2023-04-30T13:30:37.113Z,3.00
2023-04-30T13:33:41.538Z,7.68
2023-04-30T13:36:44.265Z,2.53
2023-04-30T13:39:46.979Z,2.58
2023-04-30T13:42:49.963Z,2.15
2023-04-30T13:45:52.698Z,3.35
2023-04-30T13:48:56.964Z,1.75
2023-04-30T13:51:59.660Z,2.50
2023-04-30T13:55:03.735Z,1.80
2023-04-30T13:58:06.401Z,2.45
2023-04-30T14:01:10.396Z,2.28
2023-04-30T14:04:15.162Z,3.55
2023-04-30T14:07:18.433Z,2.33
2023-04-30T14:10:21.175Z,2.97
2023-04-30T14:13:24.022Z,2.95
2023-04-30T14:16:27.398Z,2.42
2023-04-30T14:19:31.627Z,1.95
2023-04-30T14:22:38.490Z,1.88
2023-04-30T14:25:41.446Z,2.42
2023-04-30T14:28:44.110Z,2.42
2023-04-30T14:31:47.401Z,2.92
2023-04-30T14:34:51.584Z,2.17
2023-04-30T14:37:54.315Z,1.98
2023-04-30T14:40:57.046Z,3.03
2023-04-30T14:43:59.722Z,5.22
2023-04-30T14:47:02.599Z,2.45
2023-04-30T14:50:07.428Z,1.60
2023-04-30T14:53:11.357Z,3.30
2023-04-30T14:56:14.139Z,2.95
2023-04-30T14:59:17.812Z,2.08
2023-04-30T15:02:21.338Z,1.95
2023-04-30T15:05:26.112Z,2.25
2023-04-30T15:08:28.778Z,2.30
2023-04-30T15:11:31.532Z,2.72
2023-04-30T15:14:34.295Z,2.13
2023-04-30T15:17:37.776Z,1.50
2023-04-30T15:20:41.961Z,2.03
2023-04-30T15:23:45.837Z,2.22
2023-04-30T15:26:48.673Z,3.08
2023-04-30T15:29:51.400Z,2.05
2023-04-30T15:32:54.198Z,2.78
2023-04-30T15:35:59.414Z,2.08
2023-04-30T15:39:02.103Z,2.40
2023-04-30T15:42:04.802Z,2.65
2023-04-30T15:45:09.047Z,2.10
2023-04-30T15:48:11.855Z,3.05
2023-04-30T15:51:15.978Z,2.35
2023-04-30T15:54:19.139Z,2.15
2023-04-30T15:57:22.036Z,3.67
2023-04-30T16:00:27.318Z,2.00
2023-04-30T16:03:30.196Z,2.10
2023-04-30T16:06:34.593Z,2.13
2023-04-30T16:09:38.090Z,2.60
2023-04-30T16:12:41.230Z,3.30
2023-04-30T16:15:44.032Z,2.85
2023-04-30T16:18:46.934Z,1.80
2023-04-30T16:21:51.128Z,2.30
2023-04-30T16:24:54.179Z,3.42
2023-04-30T16:27:56.943Z,2.20
2023-04-30T16:30:59.860Z,2.45
2023-04-30T16:34:02.672Z,2.50
2023-04-30T16:37:06.671Z,2.33
2023-04-30T16:40:11.601Z,2.25
2023-04-30T16:43:14.421Z,2.00
2023-04-30T16:46:18.323Z,2.25
2023-04-30T16:49:22.406Z,3.20
2023-04-30T16:52:26.602Z,1.95
2023-04-30T16:55:29.461Z,2.28
2023-04-30T16:58:32.155Z,2.63
2023-04-30T17:01:35.373Z,2.28
2023-04-30T17:04:38.089Z,1.70
2023-04-30T17:07:43.332Z,2.45
2023-04-30T17:10:46.055Z,3.28
2023-04-30T17:13:48.818Z,2.22
2023-04-30T17:16:51.555Z,2.10
2023-04-30T17:19:54.581Z,1.77
2023-04-30T17:22:59.208Z,2.10
2023-04-30T17:26:03.852Z,2.45
2023-04-30T17:29:06.855Z,1.98
2023-04-30T17:32:10.508Z,2.35
2023-04-30T17:35:13.835Z,3.40
2023-04-30T17:38:17.953Z,2.60
2023-04-30T17:41:21.041Z,2.15
2023-04-30T17:44:23.802Z,2.00
2023-04-30T17:47:26.618Z,2.50
2023-04-30T17:50:29.347Z,2.22
2023-04-30T17:53:33.713Z,6.80
2023-04-30T17:56:36.590Z,3.83
2023-04-30T17:59:39.699Z,3.70
2023-04-30T18:02:43.169Z,2.20
2023-04-30T18:05:45.988Z,3.15
2023-04-30T18:08:50.182Z,3.42
2023-04-30T18:11:53.269Z,2.92
2023-04-30T18:14:56.041Z,2.33
2023-04-30T18:17:59.228Z,3.65
2023-04-30T18:21:02.233Z,2.70
2023-04-30T18:24:06.742Z,2.08
2023-04-30T18:27:10.199Z,2.35
2023-04-30T18:30:13.496Z,2.15
2023-04-30T18:33:16.303Z,1.98
2023-04-30T18:36:19.029Z,2.50
2023-04-30T18:39:23.063Z,2.42
2023-04-30T18:42:25.792Z,2.30
2023-04-30T18:45:28.569Z,1.77
2023-04-30T18:48:31.269Z,2.72
2023-04-30T18:51:33.964Z,2.88
2023-04-30T18:54:38.094Z,2.38
2023-04-30T18:57:42.386Z,3.40
2023-04-30T19:00:45.492Z,2.25
2023-04-30T19:03:48.452Z,3.60
2023-04-30T19:06:52.283Z,2.72
2023-04-30T19:09:56.939Z,2.63
2023-04-30T19:13:00.017Z,1.92
2023-04-30T19:16:04.214Z,2.33
2023-04-30T19:19:06.940Z,2.40
2023-04-30T19:22:09.785Z,2.10
2023-04-30T19:25:14.127Z,3.65
2023-04-30T19:28:16.944Z,2.47
2023-04-30T19:31:19.884Z,3.28
2023-04-30T19:34:23.146Z,9.63
2023-04-30T19:37:26.860Z,5.38
2023-04-30T19:40:31.007Z,2.15
2023-04-30T19:43:33.996Z,2.67
2023-04-30T19:46:36.836Z,5.18
2023-04-30T19:49:39.677Z,2.22
2023-04-30T19:52:42.446Z,2.22
2023-04-30T19:55:46.989Z,3.17
2023-04-30T19:58:49.761Z,2.10
2023-04-30T20:01:53.468Z,5.78
2023-04-30T20:04:56.718Z,2.95
2023-04-30T20:07:59.790Z,3.45
2023-04-30T20:11:04.177Z,2.47
2023-04-30T20:14:06.914Z,2.83
2023-04-30T20:17:09.826Z,3.97
2023-04-30T20:20:13.472Z,2.40
2023-04-30T20:23:17.661Z,3.03
2023-04-30T20:26:21.824Z,2.92
2023-04-30T20:29:24.509Z,3.45
2023-04-30T20:32:27.258Z,2.28
2023-04-30T20:35:30.009Z,2.78
2023-04-30T20:38:32.700Z,3.20
2023-04-30T20:41:36.749Z,3.15
2023-04-30T20:44:39.453Z,3.08
2023-04-30T20:47:42.351Z,5.68
2023-04-30T20:50:45.496Z,2.72
2023-04-30T20:53:48.334Z,4.05
2023-04-30T20:56:52.384Z,3.80
2023-04-30T20:59:55.403Z,3.22
2023-04-30T21:02:58.443Z,3.90
2023-04-30T21:06:01.436Z,4.80
2023-04-30T21:09:04.226Z,3.25
2023-04-30T21:12:08.447Z,3.22
2023-04-30T21:15:12.138Z,4.68
2023-04-30T21:18:14.840Z,3.33
2023-04-30T21:21:17.566Z,2.63
2023-04-30T21:24:20.995Z,4.05
2023-04-30T21:27:25.031Z,3.13
2023-04-30T21:30:27.841Z,3.08
2023-04-30T21:33:31.067Z,3.17
2023-04-30T21:36:35.295Z,4.57
2023-04-30T21:39:38.077Z,4.47
2023-04-30T21:42:42.249Z,3.95
2023-04-30T21:45:45.180Z,4.38
2023-04-30T21:48:48.304Z,4.38
2023-04-30T21:51:51.001Z,5.68
2023-04-30T21:54:53.754Z,4.60
2023-04-30T21:57:57.943Z,5.72
2023-04-30T22:01:00.739Z,5.15
2023-04-30T22:04:04.602Z,4.47
2023-04-30T22:07:07.467Z,4.13
2023-04-30T22:10:10.769Z,4.95
2023-04-30T22:13:15.073Z,4.43
2023-04-30T22:16:17.780Z,4.03
2023-04-30T22:19:20.444Z,3.42
2023-04-30T22:22:23.194Z,4.03
2023-04-30T22:25:25.902Z,3.55
2023-04-30T22:28:30.027Z,3.58
2023-04-30T22:31:32.755Z,4.53
2023-04-30T22:34:38.396Z,4.18
2023-04-30T22:37:41.187Z,4.55
2023-04-30T22:40:43.851Z,5.40
2023-04-30T22:43:48.164Z,4.05
2023-04-30T22:46:51.165Z,5.43
2023-04-30T22:49:56.061Z,5.18
2023-04-30T22:52:59.364Z,3.83
2023-04-30T22:56:02.126Z,5.57
2023-04-30T22:59:06.635Z,3.50
2023-04-30T23:02:09.307Z,5.88
2023-04-30T23:05:12.821Z,4.13
2023-04-30T23:08:15.690Z,6.13
2023-04-30T23:11:18.670Z,5.10
2023-04-30T23:14:22.763Z,5.03
2023-04-30T23:17:26.876Z,5.28
2023-04-30T23:20:29.720Z,4.55
2023-04-30T23:23:32.580Z,3.83
2023-04-30T23:26:35.373Z,5.70
2023-04-30T23:29:39.374Z,4.50
2023-04-30T23:32:42.225Z,4.50
2023-04-30T23:35:45.808Z,4.68
2023-04-30T23:38:48.601Z,3.50
2023-04-30T23:41:52.144Z,7.80
2023-04-30T23:44:56.201Z,3.90
2023-04-30T23:47:58.962Z,5.13
2023-04-30T23:51:02.349Z,5.00
2023-04-30T23:54:05.795Z,4.22
2023-04-30T23:57:08.557Z,5.13
